sensor_id;sensor_type;location;lat;lon;timestamp;pressure;altitude;pressure_sealevel;temperature;humidity
65384;BME280;51986;52.788;41.368;2023-04-23T00:02:08;98908.50;;;9.03;50.06
65384;BME280;51986;52.788;41.368;2023-04-23T00:04:36;98919.69;;;9.18;50.16
65384;BME280;51986;52.788;41.368;2023-04-23T00:07:04;98918.91;;;9.18;50.02
65384;BME280;51986;52.788;41.368;2023-04-23T00:09:32;98925.06;;;9.04;49.96
65384;BME280;51986;52.788;41.368;2023-04-23T00:11:59;98928.78;;;9.07;49.76
65384;BME280;51986;52.788;41.368;2023-04-23T00:14:26;98928.75;;;9.14;50.79
65384;BME280;51986;52.788;41.368;2023-04-23T00:16:54;98933.41;;;8.95;50.65
65384;BME280;51986;52.788;41.368;2023-04-23T00:19:21;98918.72;;;8.98;50.17
65384;BME280;51986;52.788;41.368;2023-04-23T00:21:48;98965.69;;;8.99;50.47
65384;BME280;51986;52.788;41.368;2023-04-23T00:24:14;98955.88;;;9.03;50.22
65384;BME280;51986;52.788;41.368;2023-04-23T00:26:42;98958.50;;;9.03;50.10
65384;BME280;51986;52.788;41.368;2023-04-23T00:29:08;98947.31;;;8.96;50.59
65384;BME280;51986;52.788;41.368;2023-04-23T00:31:36;98958.50;;;9.03;50.22
65384;BME280;51986;52.788;41.368;2023-04-23T00:34:03;98962.69;;;8.97;50.06
65384;BME280;51986;52.788;41.368;2023-04-23T00:36:30;98960.47;;;8.92;50.76
65384;BME280;51986;52.788;41.368;2023-04-23T00:38:57;98973.63;;;8.92;50.74
65384;BME280;51986;52.788;41.368;2023-04-23T00:41:24;98954.88;;;8.90;50.17
65384;BME280;51986;52.788;41.368;2023-04-23T00:43:52;98972.44;;;9.00;50.07
65384;BME280;51986;52.788;41.368;2023-04-23T00:46:20;98962.69;;;8.94;50.43
65384;BME280;51986;52.788;41.368;2023-04-23T00:48:48;98971.38;;;8.94;50.05
65384;BME280;51986;52.788;41.368;2023-04-23T00:51:16;98977.06;;;8.86;50.64
65384;BME280;51986;52.788;41.368;2023-04-23T00:53:43;98969.22;;;8.75;50.59
65384;BME280;51986;52.788;41.368;2023-04-23T00:56:10;98995.16;;;8.76;50.83
65384;BME280;51986;52.788;41.368;2023-04-23T00:58:37;98971.91;;;8.64;51.55
65384;BME280;51986;52.788;41.368;2023-04-23T01:01:05;98969.28;;;8.61;51.53
65384;BME280;51986;52.788;41.368;2023-04-23T01:03:34;98987.66;;;8.68;51.59
65384;BME280;51986;52.788;41.368;2023-04-23T01:06:03;98978.28;;;8.67;51.59
65384;BME280;51986;52.788;41.368;2023-04-23T01:08:31;98976.50;;;8.53;51.36
65384;BME280;51986;52.788;41.368;2023-04-23T01:10:58;98996.81;;;8.45;52.22
65384;BME280;51986;52.788;41.368;2023-04-23T01:13:25;98964.56;;;8.34;52.19
65384;BME280;51986;52.788;41.368;2023-04-23T01:15:52;98985.53;;;8.45;52.14
65384;BME280;51986;52.788;41.368;2023-04-23T01:18:19;98972.81;;;8.40;51.89
65384;BME280;51986;52.788;41.368;2023-04-23T01:20:48;98964.84;;;8.54;51.45
65384;BME280;51986;52.788;41.368;2023-04-23T01:23:15;99001.38;;;8.38;51.77
65384;BME280;51986;52.788;41.368;2023-04-23T01:25:42;99002.03;;;8.49;51.87
65384;BME280;51986;52.788;41.368;2023-04-23T01:28:09;98991.19;;;8.40;52.39
65384;BME280;51986;52.788;41.368;2023-04-23T01:30:37;98995.31;;;8.48;51.87
65384;BME280;51986;52.788;41.368;2023-04-23T01:33:04;99008.84;;;8.43;52.57
65384;BME280;51986;52.788;41.368;2023-04-23T01:35:32;98972.13;;;8.25;52.24
65384;BME280;51986;52.788;41.368;2023-04-23T01:38:02;98991.66;;;8.27;52.09
65384;BME280;51986;52.788;41.368;2023-04-23T01:40:29;98999.88;;;8.33;51.78
65384;BME280;51986;52.788;41.368;2023-04-23T01:42:57;99018.63;;;8.39;52.20
65384;BME280;51986;52.788;41.368;2023-04-23T01:45:24;99005.13;;;8.33;52.11
65384;BME280;51986;52.788;41.368;2023-04-23T01:47:51;99001.38;;;8.27;52.41
65384;BME280;51986;52.788;41.368;2023-04-23T01:50:19;99011.94;;;8.23;52.77
65384;BME280;51986;52.788;41.368;2023-04-23T01:52:46;99026.19;;;8.26;52.44
65384;BME280;51986;52.788;41.368;2023-04-23T01:55:13;99010.41;;;8.33;52.70
65384;BME280;51986;52.788;41.368;2023-04-23T01:57:40;99010.41;;;8.22;52.44
65384;BME280;51986;52.788;41.368;2023-04-23T02:00:09;99013.13;;;8.05;53.06
65384;BME280;51986;52.788;41.368;2023-04-23T02:02:41;99022.84;;;8.08;53.13
65384;BME280;51986;52.788;41.368;2023-04-23T02:05:11;98996.53;;;8.22;52.89
65384;BME280;51986;52.788;41.368;2023-04-23T02:07:39;99044.22;;;8.24;53.24
65384;BME280;51986;52.788;41.368;2023-04-23T02:10:06;99019.81;;;8.23;52.91
65384;BME280;51986;52.788;41.368;2023-04-23T02:12:33;99012.69;;;8.24;52.81
65384;BME280;51986;52.788;41.368;2023-04-23T02:15:00;99004.06;;;8.20;52.53
65384;BME280;51986;52.788;41.368;2023-04-23T02:17:27;99025.41;;;8.33;52.07
65384;BME280;51986;52.788;41.368;2023-04-23T02:19:54;99051.31;;;8.27;52.05
65384;BME280;51986;52.788;41.368;2023-04-23T02:22:23;99058.44;;;8.30;52.78
65384;BME280;51986;52.788;41.368;2023-04-23T02:24:50;99036.63;;;8.40;52.49
65384;BME280;51986;52.788;41.368;2023-04-23T02:27:18;99050.91;;;8.43;51.97
65384;BME280;51986;52.788;41.368;2023-04-23T02:29:45;99039.25;;;8.47;52.30
65384;BME280;51986;52.788;41.368;2023-04-23T02:32:12;99036.22;;;8.45;52.01
65384;BME280;51986;52.788;41.368;2023-04-23T02:34:39;99047.88;;;8.41;51.88
65384;BME280;51986;52.788;41.368;2023-04-23T02:37:07;99055.63;;;8.73;51.41
65384;BME280;51986;52.788;41.368;2023-04-23T02:39:34;99037.59;;;8.75;51.04
65384;BME280;51986;52.788;41.368;2023-04-23T02:42:02;99058.19;;;8.91;51.01
65384;BME280;51986;52.788;41.368;2023-04-23T02:44:29;99052.13;;;9.01;50.65
65384;BME280;51986;52.788;41.368;2023-04-23T02:46:56;99069.72;;;9.08;50.41
65384;BME280;51986;52.788;41.368;2023-04-23T02:49:23;99052.03;;;9.12;50.23
65384;BME280;51986;52.788;41.368;2023-04-23T02:51:50;99057.97;;;9.23;50.17
65384;BME280;51986;52.788;41.368;2023-04-23T02:54:17;99061.63;;;9.36;49.99
65384;BME280;51986;52.788;41.368;2023-04-23T02:56:44;99079.47;;;9.63;49.13
65384;BME280;51986;52.788;41.368;2023-04-23T02:59:11;99074.31;;;10.89;46.64
65384;BME280;51986;52.788;41.368;2023-04-23T03:01:38;99063.63;;;12.13;43.35
65384;BME280;51986;52.788;41.368;2023-04-23T03:04:07;99081.31;;;12.92;42.09
65384;BME280;51986;52.788;41.368;2023-04-23T03:06:35;99060.63;;;13.52;40.23
65384;BME280;51986;52.788;41.368;2023-04-23T03:09:02;99066.03;;;14.36;38.04
65384;BME280;51986;52.788;41.368;2023-04-23T03:11:29;99072.84;;;15.01;36.65
65384;BME280;51986;52.788;41.368;2023-04-23T03:13:56;99070.97;;;15.61;36.01
65384;BME280;51986;52.788;41.368;2023-04-23T03:16:23;99074.69;;;16.52;34.00
65384;BME280;51986;52.788;41.368;2023-04-23T03:18:52;99069.16;;;17.36;32.55
65384;BME280;51986;52.788;41.368;2023-04-23T03:21:19;99075.13;;;17.58;31.84
65384;BME280;51986;52.788;41.368;2023-04-23T03:23:46;99088.59;;;18.01;30.93
65384;BME280;51986;52.788;41.368;2023-04-23T03:26:13;99089.63;;;18.12;30.24
65384;BME280;51986;52.788;41.368;2023-04-23T03:28:40;99080.91;;;18.63;29.66
65384;BME280;51986;52.788;41.368;2023-04-23T03:31:07;99096.75;;;19.09;29.37
65384;BME280;51986;52.788;41.368;2023-04-23T03:33:34;99092.53;;;19.65;28.62
65384;BME280;51986;52.788;41.368;2023-04-23T03:36:02;99100.53;;;19.89;27.95
65384;BME280;51986;52.788;41.368;2023-04-23T03:38:31;99121.16;;;20.13;27.64
65384;BME280;51986;52.788;41.368;2023-04-23T03:40:59;99102.22;;;20.31;27.19
65384;BME280;51986;52.788;41.368;2023-04-23T03:43:26;99108.47;;;20.58;26.63
65384;BME280;51986;52.788;41.368;2023-04-23T03:46:02;99096.03;;;20.69;27.14
65384;BME280;51986;52.788;41.368;2023-04-23T03:48:32;99109.50;;;20.60;27.02
65384;BME280;51986;52.788;41.368;2023-04-23T03:51:03;99111.25;;;20.78;26.84
65384;BME280;51986;52.788;41.368;2023-04-23T03:53:39;99113.66;;;21.11;26.74
65384;BME280;51986;52.788;41.368;2023-04-23T03:56:24;99120.81;;;21.55;25.95
65384;BME280;51986;52.788;41.368;2023-04-23T03:59:19;99102.09;;;20.85;26.78
65384;BME280;51986;52.788;41.368;2023-04-23T04:01:48;99116.97;;;20.86;27.02
65384;BME280;51986;52.788;41.368;2023-04-23T04:04:16;99139.97;;;20.77;27.11
65384;BME280;51986;52.788;41.368;2023-04-23T04:06:43;99087.13;;;20.78;27.45
65384;BME280;51986;52.788;41.368;2023-04-23T04:09:10;99147.88;;;21.37;26.91
65384;BME280;51986;52.788;41.368;2023-04-23T04:11:37;99143.63;;;21.45;26.81
65384;BME280;51986;52.788;41.368;2023-04-23T04:14:04;99097.94;;;21.60;26.96
65384;BME280;51986;52.788;41.368;2023-04-23T04:16:31;99148.44;;;21.82;26.00
65384;BME280;51986;52.788;41.368;2023-04-23T04:18:59;99106.38;;;21.52;26.15
65384;BME280;51986;52.788;41.368;2023-04-23T04:21:26;99143.75;;;21.76;25.96
65384;BME280;51986;52.788;41.368;2023-04-23T04:23:52;99137.84;;;21.52;26.80
65384;BME280;51986;52.788;41.368;2023-04-23T04:26:19;99143.84;;;21.88;26.43
65384;BME280;51986;52.788;41.368;2023-04-23T04:28:46;99140.91;;;22.12;26.27
65384;BME280;51986;52.788;41.368;2023-04-23T04:31:13;99140.44;;;22.34;26.03
65384;BME280;51986;52.788;41.368;2023-04-23T04:33:41;99149.00;;;22.38;25.98
65384;BME280;51986;52.788;41.368;2023-04-23T04:36:08;99162.91;;;22.10;26.51
65384;BME280;51986;52.788;41.368;2023-04-23T04:38:35;99154.78;;;21.23;26.86
65384;BME280;51986;52.788;41.368;2023-04-23T04:41:02;99159.44;;;21.08;27.12
65384;BME280;51986;52.788;41.368;2023-04-23T04:43:29;99165.66;;;21.34;27.56
65384;BME280;51986;52.788;41.368;2023-04-23T04:45:56;99165.06;;;20.74;27.99
65384;BME280;51986;52.788;41.368;2023-04-23T04:48:42;99161.25;;;20.51;28.31
65384;BME280;51986;52.788;41.368;2023-04-23T04:51:09;99169.53;;;20.39;28.62
65384;BME280;51986;52.788;41.368;2023-04-23T04:53:36;99145.56;;;20.44;28.79
65384;BME280;51986;52.788;41.368;2023-04-23T04:56:03;99187.00;;;20.49;28.93
65384;BME280;51986;52.788;41.368;2023-04-23T05:01:16;99169.47;;;20.63;28.21
65384;BME280;51986;52.788;41.368;2023-04-23T05:03:43;99176.84;;;20.53;28.52
65384;BME280;51986;52.788;41.368;2023-04-23T05:06:10;99187.06;;;20.25;29.11
65384;BME280;51986;52.788;41.368;2023-04-23T05:08:37;99174.78;;;20.18;28.88
65384;BME280;51986;52.788;41.368;2023-04-23T05:11:04;99173.38;;;19.93;29.37
65384;BME280;51986;52.788;41.368;2023-04-23T05:13:31;99188.34;;;20.15;28.39
65384;BME280;51986;52.788;41.368;2023-04-23T05:15:58;99191.94;;;19.97;28.47
65384;BME280;51986;52.788;41.368;2023-04-23T05:18:25;99208.00;;;19.97;28.81
65384;BME280;51986;52.788;41.368;2023-04-23T05:20:52;99208.00;;;19.97;28.74
65384;BME280;51986;52.788;41.368;2023-04-23T05:23:19;99210.66;;;20.21;28.63
65384;BME280;51986;52.788;41.368;2023-04-23T05:25:46;99213.91;;;20.01;28.13
65384;BME280;51986;52.788;41.368;2023-04-23T05:28:13;99214.19;;;20.03;28.53
65384;BME280;51986;52.788;41.368;2023-04-23T05:30:40;99189.53;;;19.99;28.17
65384;BME280;51986;52.788;41.368;2023-04-23T05:33:07;99207.91;;;20.30;27.75
65384;BME280;51986;52.788;41.368;2023-04-23T05:35:34;99200.38;;;20.19;27.47
65384;BME280;51986;52.788;41.368;2023-04-23T05:38:01;99216.03;;;20.36;27.42
65384;BME280;51986;52.788;41.368;2023-04-23T05:40:28;99216.66;;;20.31;27.27
65384;BME280;51986;52.788;41.368;2023-04-23T05:42:57;99219.59;;;20.18;27.31
65384;BME280;51986;52.788;41.368;2023-04-23T05:45:24;99227.66;;;20.33;26.21
65384;BME280;51986;52.788;41.368;2023-04-23T05:47:51;99208.81;;;20.42;26.35
65384;BME280;51986;52.788;41.368;2023-04-23T05:50:19;99209.56;;;20.42;26.38
65384;BME280;51986;52.788;41.368;2023-04-23T05:52:47;99214.75;;;20.46;25.88
65384;BME280;51986;52.788;41.368;2023-04-23T05:55:14;99215.81;;;20.78;25.21
65384;BME280;51986;52.788;41.368;2023-04-23T05:57:41;99183.00;;;20.68;25.35
65384;BME280;51986;52.788;41.368;2023-04-23T06:00:08;99221.94;;;21.14;24.82
65384;BME280;51986;52.788;41.368;2023-04-23T06:02:39;99225.31;;;20.94;25.55
65384;BME280;51986;52.788;41.368;2023-04-23T06:05:06;99236.94;;;20.91;25.45
65384;BME280;51986;52.788;41.368;2023-04-23T06:07:34;99228.03;;;21.14;25.69
65384;BME280;51986;52.788;41.368;2023-04-23T06:10:03;99243.25;;;21.02;24.91
65384;BME280;51986;52.788;41.368;2023-04-23T06:15:15;99239.72;;;20.82;25.00
65384;BME280;51986;52.788;41.368;2023-04-23T06:17:42;99239.25;;;21.13;24.79
65384;BME280;51986;52.788;41.368;2023-04-23T06:20:10;99241.53;;;21.20;24.19
65384;BME280;51986;52.788;41.368;2023-04-23T06:22:37;99243.97;;;21.18;24.15
65384;BME280;51986;52.788;41.368;2023-04-23T06:25:04;99241.72;;;21.31;24.81
65384;BME280;51986;52.788;41.368;2023-04-23T06:27:31;99230.69;;;21.44;24.52
65384;BME280;51986;52.788;41.368;2023-04-23T06:30:04;99237.91;;;21.38;24.58
65384;BME280;51986;52.788;41.368;2023-04-23T06:32:31;99258.72;;;21.43;23.82
65384;BME280;51986;52.788;41.368;2023-04-23T06:34:58;99255.28;;;21.57;24.16
65384;BME280;51986;52.788;41.368;2023-04-23T06:37:28;99241.72;;;21.46;24.11
65384;BME280;51986;52.788;41.368;2023-04-23T06:39:58;99256.75;;;20.78;24.15
65384;BME280;51986;52.788;41.368;2023-04-23T06:42:25;99272.34;;;21.10;23.67
65384;BME280;51986;52.788;41.368;2023-04-23T06:45:16;99258.91;;;21.24;23.48
65384;BME280;51986;52.788;41.368;2023-04-23T06:47:44;99257.22;;;21.57;23.87
65384;BME280;51986;52.788;41.368;2023-04-23T06:50:11;99256.41;;;21.50;23.53
65384;BME280;51986;52.788;41.368;2023-04-23T06:52:38;99255.81;;;20.82;24.45
65384;BME280;51986;52.788;41.368;2023-04-23T06:55:06;99260.00;;;20.83;24.76
65384;BME280;51986;52.788;41.368;2023-04-23T06:57:33;99270.81;;;20.88;24.06
65384;BME280;51986;52.788;41.368;2023-04-23T07:00:00;99259.69;;;20.66;24.04
65384;BME280;51986;52.788;41.368;2023-04-23T07:02:34;99275.03;;;20.80;24.32
65384;BME280;51986;52.788;41.368;2023-04-23T07:05:02;99289.38;;;20.92;23.74
65384;BME280;51986;52.788;41.368;2023-04-23T07:07:29;99288.28;;;20.45;23.36
65384;BME280;51986;52.788;41.368;2023-04-23T07:09:56;99262.25;;;21.19;23.26
65384;BME280;51986;52.788;41.368;2023-04-23T07:12:23;99264.38;;;21.15;23.01
65384;BME280;51986;52.788;41.368;2023-04-23T07:14:50;99270.75;;;21.47;23.03
65384;BME280;51986;52.788;41.368;2023-04-23T07:17:17;99255.94;;;21.52;23.02
65384;BME280;51986;52.788;41.368;2023-04-23T07:19:44;99246.16;;;21.69;22.73
65384;BME280;51986;52.788;41.368;2023-04-23T07:22:11;99265.69;;;21.70;23.36
65384;BME280;51986;52.788;41.368;2023-04-23T07:24:38;99278.94;;;21.09;23.96
65384;BME280;51986;52.788;41.368;2023-04-23T07:27:06;99279.19;;;20.81;23.98
65384;BME280;51986;52.788;41.368;2023-04-23T07:29:33;99273.94;;;21.16;23.63
65384;BME280;51986;52.788;41.368;2023-04-23T07:32:00;99277.28;;;21.61;22.89
65384;BME280;51986;52.788;41.368;2023-04-23T07:34:27;99281.94;;;21.81;22.11
65384;BME280;51986;52.788;41.368;2023-04-23T07:36:54;99265.16;;;21.86;23.04
65384;BME280;51986;52.788;41.368;2023-04-23T07:39:21;99269.06;;;21.65;22.33
65384;BME280;51986;52.788;41.368;2023-04-23T07:41:48;99274.63;;;21.82;21.85
65384;BME280;51986;52.788;41.368;2023-04-23T07:44:15;99248.69;;;21.58;22.36
65384;BME280;51986;52.788;41.368;2023-04-23T07:46:42;99272.84;;;22.34;21.70
65384;BME280;51986;52.788;41.368;2023-04-23T07:49:09;99269.34;;;22.08;21.89
65384;BME280;51986;52.788;41.368;2023-04-23T07:51:36;99260.41;;;21.96;22.07
65384;BME280;51986;52.788;41.368;2023-04-23T07:54:03;99248.66;;;21.93;21.85
65384;BME280;51986;52.788;41.368;2023-04-23T07:56:30;99260.00;;;22.03;21.30
65384;BME280;51986;52.788;41.368;2023-04-23T07:58:58;99258.34;;;21.50;21.81
65384;BME280;51986;52.788;41.368;2023-04-23T08:01:25;99274.38;;;22.20;21.49
65384;BME280;51986;52.788;41.368;2023-04-23T08:03:52;99287.47;;;22.79;20.92
65384;BME280;51986;52.788;41.368;2023-04-23T08:06:21;99252.97;;;23.04;20.07
65384;BME280;51986;52.788;41.368;2023-04-23T08:08:48;99267.03;;;23.19;19.87
65384;BME280;51986;52.788;41.368;2023-04-23T08:11:15;99268.66;;;23.11;19.93
65384;BME280;51986;52.788;41.368;2023-04-23T08:13:42;99246.06;;;22.97;20.03
65384;BME280;51986;52.788;41.368;2023-04-23T08:16:09;99254.38;;;23.31;18.91
65384;BME280;51986;52.788;41.368;2023-04-23T08:18:36;99245.31;;;23.28;19.60
65384;BME280;51986;52.788;41.368;2023-04-23T08:21:03;99250.38;;;23.21;19.37
65384;BME280;51986;52.788;41.368;2023-04-23T08:23:30;99271.59;;;22.55;19.94
65384;BME280;51986;52.788;41.368;2023-04-23T08:25:57;99260.94;;;22.41;19.93
65384;BME280;51986;52.788;41.368;2023-04-23T08:28:24;99273.88;;;21.81;20.61
65384;BME280;51986;52.788;41.368;2023-04-23T08:30:51;99242.28;;;21.70;19.77
65384;BME280;51986;52.788;41.368;2023-04-23T08:33:18;99256.00;;;21.58;20.09
65384;BME280;51986;52.788;41.368;2023-04-23T08:35:45;99258.25;;;21.44;20.49
65384;BME280;51986;52.788;41.368;2023-04-23T08:38:12;99257.38;;;21.03;22.10
65384;BME280;51986;52.788;41.368;2023-04-23T08:40:41;99255.75;;;20.52;22.47
65384;BME280;51986;52.788;41.368;2023-04-23T08:43:15;99247.75;;;21.11;21.86
65384;BME280;51986;52.788;41.368;2023-04-23T08:45:48;99260.16;;;20.94;22.64
65384;BME280;51986;52.788;41.368;2023-04-23T08:48:15;99264.47;;;21.36;21.86
65384;BME280;51986;52.788;41.368;2023-04-23T08:50:43;99247.81;;;21.32;22.47
65384;BME280;51986;52.788;41.368;2023-04-23T08:53:17;99255.38;;;21.48;21.79
65384;BME280;51986;52.788;41.368;2023-04-23T08:55:46;99255.13;;;21.46;21.38
65384;BME280;51986;52.788;41.368;2023-04-23T08:58:15;99264.84;;;21.43;21.68
65384;BME280;51986;52.788;41.368;2023-04-23T09:00:42;99265.56;;;21.44;21.39
65384;BME280;51986;52.788;41.368;2023-04-23T09:03:10;99253.00;;;21.70;20.55
65384;BME280;51986;52.788;41.368;2023-04-23T09:05:38;99281.41;;;21.42;21.35
65384;BME280;51986;52.788;41.368;2023-04-23T09:08:06;99255.31;;;21.42;21.43
65384;BME280;51986;52.788;41.368;2023-04-23T09:10:36;99272.44;;;21.45;20.82
65384;BME280;51986;52.788;41.368;2023-04-23T09:13:03;99265.75;;;21.55;20.36
65384;BME280;51986;52.788;41.368;2023-04-23T09:15:30;99248.53;;;21.47;21.33
65384;BME280;51986;52.788;41.368;2023-04-23T09:17:58;99261.31;;;21.72;21.19
65384;BME280;51986;52.788;41.368;2023-04-23T09:20:26;99251.44;;;21.64;21.55
65384;BME280;51986;52.788;41.368;2023-04-23T09:22:53;99271.22;;;21.81;20.78
65384;BME280;51986;52.788;41.368;2023-04-23T09:25:22;99276.97;;;21.74;20.73
65384;BME280;51986;52.788;41.368;2023-04-23T09:27:51;99278.31;;;21.49;20.23
65384;BME280;51986;52.788;41.368;2023-04-23T09:30:19;99265.47;;;21.53;20.72
65384;BME280;51986;52.788;41.368;2023-04-23T09:32:46;99263.06;;;21.55;20.12
65384;BME280;51986;52.788;41.368;2023-04-23T09:35:17;99263.94;;;21.87;20.45
65384;BME280;51986;52.788;41.368;2023-04-23T09:37:47;99267.53;;;21.99;19.51
65384;BME280;51986;52.788;41.368;2023-04-23T09:40:17;99271.69;;;21.79;20.15
65384;BME280;51986;52.788;41.368;2023-04-23T09:42:51;99271.25;;;21.66;20.60
65384;BME280;51986;52.788;41.368;2023-04-23T09:45:18;99275.94;;;21.36;20.77
65384;BME280;51986;52.788;41.368;2023-04-23T09:47:53;99281.84;;;21.55;20.52
65384;BME280;51986;52.788;41.368;2023-04-23T09:50:35;99247.53;;;21.79;20.49
65384;BME280;51986;52.788;41.368;2023-04-23T09:53:03;99266.94;;;21.54;20.43
65384;BME280;51986;52.788;41.368;2023-04-23T09:55:40;99274.56;;;21.41;20.41
65384;BME280;51986;52.788;41.368;2023-04-23T09:58:12;99246.69;;;21.73;19.96
65384;BME280;51986;52.788;41.368;2023-04-23T10:00:40;99251.13;;;21.76;20.12
65384;BME280;51986;52.788;41.368;2023-04-23T10:03:08;99267.25;;;21.26;20.25
65384;BME280;51986;52.788;41.368;2023-04-23T10:05:42;99254.06;;;21.58;20.37
65384;BME280;51986;52.788;41.368;2023-04-23T10:08:27;99277.88;;;21.50;20.06
65384;BME280;51986;52.788;41.368;2023-04-23T10:10:54;99251.91;;;21.42;19.93
65384;BME280;51986;52.788;41.368;2023-04-23T10:13:40;99252.63;;;21.27;20.50
65384;BME280;51986;52.788;41.368;2023-04-23T10:16:07;99273.06;;;21.54;20.22
65384;BME280;51986;52.788;41.368;2023-04-23T10:18:50;99277.06;;;20.70;21.09
65384;BME280;51986;52.788;41.368;2023-04-23T10:21:24;99297.03;;;20.69;20.71
65384;BME280;51986;52.788;41.368;2023-04-23T10:23:52;99262.38;;;20.81;21.01
65384;BME280;51986;52.788;41.368;2023-04-23T10:26:21;99256.19;;;21.04;20.92
65384;BME280;51986;52.788;41.368;2023-04-23T10:28:49;99265.66;;;21.35;20.36
65384;BME280;51986;52.788;41.368;2023-04-23T10:31:19;99258.56;;;21.17;20.44
65384;BME280;51986;52.788;41.368;2023-04-23T10:33:47;99261.50;;;21.34;19.95
65384;BME280;51986;52.788;41.368;2023-04-23T10:36:22;99283.16;;;21.15;21.02
65384;BME280;51986;52.788;41.368;2023-04-23T10:38:49;99292.25;;;21.03;20.56
65384;BME280;51986;52.788;41.368;2023-04-23T10:41:31;99253.31;;;20.93;20.33
65384;BME280;51986;52.788;41.368;2023-04-23T10:44:00;99276.59;;;21.01;20.13
65384;BME280;51986;52.788;41.368;2023-04-23T10:46:29;99286.50;;;21.10;20.38
65384;BME280;51986;52.788;41.368;2023-04-23T10:49:09;99274.28;;;21.24;21.21
65384;BME280;51986;52.788;41.368;2023-04-23T10:51:36;99298.16;;;21.07;20.91
65384;BME280;51986;52.788;41.368;2023-04-23T10:54:06;99274.88;;;20.98;20.65
65384;BME280;51986;52.788;41.368;2023-04-23T10:56:33;99287.53;;;21.13;20.54
65384;BME280;51986;52.788;41.368;2023-04-23T10:59:01;99297.06;;;20.99;20.14
65384;BME280;51986;52.788;41.368;2023-04-23T11:01:28;99294.63;;;21.45;20.29
65384;BME280;51986;52.788;41.368;2023-04-23T11:03:55;99284.66;;;21.46;19.31
65384;BME280;51986;52.788;41.368;2023-04-23T11:09:38;99278.22;;;21.93;19.69
65384;BME280;51986;52.788;41.368;2023-04-23T11:12:08;99259.06;;;21.86;19.50
65384;BME280;51986;52.788;41.368;2023-04-23T11:14:48;99276.63;;;22.22;19.78
65384;BME280;51986;52.788;41.368;2023-04-23T11:17:24;99274.72;;;22.28;19.25
65384;BME280;51986;52.788;41.368;2023-04-23T11:20:12;99280.22;;;22.39;19.31
65384;BME280;51986;52.788;41.368;2023-04-23T11:22:47;99279.50;;;22.91;18.81
65384;BME280;51986;52.788;41.368;2023-04-23T11:25:20;99288.88;;;23.01;18.48
65384;BME280;51986;52.788;41.368;2023-04-23T11:27:50;99291.09;;;22.76;18.66
65384;BME280;51986;52.788;41.368;2023-04-23T11:30:19;99265.59;;;22.66;18.36
65384;BME280;51986;52.788;41.368;2023-04-23T11:32:48;99270.97;;;22.66;18.91
65384;BME280;51986;52.788;41.368;2023-04-23T11:35:20;99262.56;;;23.11;17.48
65384;BME280;51986;52.788;41.368;2023-04-23T11:37:48;99279.81;;;22.72;18.04
65384;BME280;51986;52.788;41.368;2023-04-23T11:40:16;99258.00;;;22.65;18.68
65384;BME280;51986;52.788;41.368;2023-04-23T11:42:51;99271.69;;;22.41;18.95
65384;BME280;51986;52.788;41.368;2023-04-23T11:47:51;99272.34;;;22.36;19.27
65384;BME280;51986;52.788;41.368;2023-04-23T11:50:19;99280.16;;;22.13;18.82
65384;BME280;51986;52.788;41.368;2023-04-23T11:52:47;99276.81;;;21.98;19.20
65384;BME280;51986;52.788;41.368;2023-04-23T11:55:14;99263.16;;;22.01;19.13
65384;BME280;51986;52.788;41.368;2023-04-23T11:57:49;99278.50;;;22.16;19.26
65384;BME280;51986;52.788;41.368;2023-04-23T12:00:21;99278.00;;;21.97;18.76
65384;BME280;51986;52.788;41.368;2023-04-23T12:02:50;99268.25;;;21.79;19.55
65384;BME280;51986;52.788;41.368;2023-04-23T12:05:27;99249.53;;;21.85;20.43
65384;BME280;51986;52.788;41.368;2023-04-23T12:08:06;99284.91;;;21.48;20.15
65384;BME280;51986;52.788;41.368;2023-04-23T12:10:41;99282.59;;;21.56;20.49
65384;BME280;51986;52.788;41.368;2023-04-23T12:13:23;99267.88;;;21.51;19.76
65384;BME280;51986;52.788;41.368;2023-04-23T12:15:52;99270.34;;;21.69;19.95
65384;BME280;51986;52.788;41.368;2023-04-23T12:18:19;99271.22;;;21.46;19.94
65384;BME280;51986;52.788;41.368;2023-04-23T12:20:46;99261.72;;;21.45;20.90
65384;BME280;51986;52.788;41.368;2023-04-23T12:23:13;99271.34;;;21.22;20.20
65384;BME280;51986;52.788;41.368;2023-04-23T12:25:40;99260.31;;;21.20;19.79
65384;BME280;51986;52.788;41.368;2023-04-23T12:28:07;99255.97;;;21.22;20.48
65384;BME280;51986;52.788;41.368;2023-04-23T12:30:42;99272.44;;;21.15;20.35
65384;BME280;51986;52.788;41.368;2023-04-23T12:33:10;99270.63;;;21.07;20.27
65384;BME280;51986;52.788;41.368;2023-04-23T12:35:41;99270.63;;;21.57;19.60
65384;BME280;51986;52.788;41.368;2023-04-23T12:38:21;99280.34;;;21.54;19.98
65384;BME280;51986;52.788;41.368;2023-04-23T12:40:48;99247.78;;;21.82;19.51
65384;BME280;51986;52.788;41.368;2023-04-23T12:43:15;99250.03;;;21.68;19.73
65384;BME280;51986;52.788;41.368;2023-04-23T12:45:42;99234.22;;;21.70;20.34
65384;BME280;51986;52.788;41.368;2023-04-23T12:48:09;99237.72;;;21.76;19.84
65384;BME280;51986;52.788;41.368;2023-04-23T12:53:22;99246.19;;;21.90;19.60
65384;BME280;51986;52.788;41.368;2023-04-23T12:55:48;99252.28;;;22.11;19.13
65384;BME280;51986;52.788;41.368;2023-04-23T13:00:42;99229.88;;;21.93;19.39
65384;BME280;51986;52.788;41.368;2023-04-23T13:03:09;99251.66;;;22.01;18.90
65384;BME280;51986;52.788;41.368;2023-04-23T13:05:37;99255.69;;;22.11;19.04
65384;BME280;51986;52.788;41.368;2023-04-23T13:08:04;99241.72;;;21.87;19.55
65384;BME280;51986;52.788;41.368;2023-04-23T13:10:30;99249.25;;;21.62;20.24
65384;BME280;51986;52.788;41.368;2023-04-23T13:12:57;99264.38;;;21.45;20.15
65384;BME280;51986;52.788;41.368;2023-04-23T13:15:24;99262.25;;;21.19;20.05
65384;BME280;51986;52.788;41.368;2023-04-23T13:17:52;99279.84;;;21.06;20.44